KOEO/OEO METAR and TAF weather

Enter ICAO airport designator
Station Type Date Time Source
KOEO METAR 2022/12/05 13:35 UTC NOAA

KOEO 051335Z AUTO 00000KT 10SM SCT110 M06/M06 A2983 RMK AO2 T10601060


Station Type Date Time Source
KOEO Decoded METAR 2022/12/05 13:35 UTC NOAA

Osceola, L O Simenstad Municipal Airport, WI, United States (KOEO) 45-18-31N 092-41-24W
Dec 05, 2022 - 08:35 AM EST / 2022.12.05 1335 UTC
Wind: Calm:0
Visibility: 10 mile(s):0
Sky conditions: partly cloudy
Temperature: 21.2 F (-6.0 C)
Dew Point: 21.2 F (-6.0 C)
Relative Humidity: 100%
Pressure (altimeter): 29.83 in. Hg (1010 hPa)
ob: KOEO 051335Z AUTO 00000KT 10SM SCT110 M06/M06 A2983 RMK AO2 T10601060
cycle: 13

Station Type Date Time Source
KOEO TAF UTC NOAA

Error!

Example: see airport list